Farndon, United Kingdom
Current Conditions -  °F | °C
As of 7:50 AM on Friday 28 Nov 2014 (Local Time) from EGYD Reporting Station
Haze Haze  
Wind Chill:   Ceiling: 200
Heat Index:   Visibility: 0.75mi
Dew Point:   Wind: 10mph
Humidity: 100%   Direction: 90°E
Pressure: 29.65"   Gusts: NA
Location:  53.05°N, 0.85°W
Report Text: EGYD 280750Z 09009KT 1200 BR OVC002 09/09 Q1004 AMB BECMG 3500 SCT003 YLO2
Loading
Personal Weather Stations






























Interactive Weather Map New forecast layout! Learn more

10-Day Weather Forecast

Advertisements
Track Severe Weather on mobile